Time;durP1;ratioP1;P1;durP2;ratioP2;P2;SDS_P1;SDS_P2;PMS_P1;PMS_P2;Temp;Humidity;BMP_temperature;BMP_pressure;BME280_temperature;BME280_humidity;BME280_pressure;Samples;Min_cycle;Max_cycle;Signal;HPM_P1;HPM_P2
2023/04/01 00:01:57;;;;;;;6.43;3.90;;;;;;;19.60;51.39;99973.72;5032965;28;20041;-49
2023/04/01 00:04:25;;;;;;;6.15;3.65;;;;;;;19.60;51.47;99978.25;5044430;28;20095;-47
2023/04/01 00:06:52;;;;;;;6.35;3.58;;;;;;;19.60;51.26;99962.16;5052975;28;20041;-51
2023/04/01 00:09:19;;;;;;;8.30;4.28;;;;;;;19.59;51.27;99980.09;5052724;28;20048;-49
2023/04/01 00:11:47;;;;;;;4.43;3.83;;;;;;;19.58;51.12;99978.44;5052692;28;20056;-50
2023/04/01 00:14:16;;;;;;;5.15;3.67;;;;;;;19.59;51.22;99980.09;5052996;28;20041;-49
2023/04/01 00:16:43;;;;;;;4.90;3.53;;;;;;;19.59;51.30;99966.69;5052764;28;20037;-50
2023/04/01 00:19:11;;;;;;;6.88;4.55;;;;;;;19.58;51.43;99970.38;5055225;28;20506;-48
2023/04/01 00:21:38;;;;;;;6.05;3.70;;;;;;;19.59;51.49;99977.41;5056790;28;20048;-48
2023/04/01 00:24:05;;;;;;;6.82;3.60;;;;;;;19.59;51.36;99981.94;5056377;28;20053;-50
2023/04/01 00:26:33;;;;;;;7.35;3.85;;;;;;;19.59;51.33;99976.59;5056725;28;20052;-48
2023/04/01 00:29:00;;;;;;;8.13;3.70;;;;;;;19.59;51.45;99981.94;5056622;28;20056;-48
2023/04/01 00:31:28;;;;;;;6.53;4.00;;;;;;;19.57;51.46;99979.44;5056299;28;20045;-50
2023/04/01 00:33:56;;;;;;;6.03;4.05;;;;;;;19.58;51.28;99974.91;5056635;28;20045;-48
2023/04/01 00:36:23;;;;;;;5.93;3.80;;;;;;;19.58;51.26;99967.69;5056186;28;20033;-49
2023/04/01 00:38:51;;;;;;;5.95;3.58;;;;;;;19.58;51.28;99985.63;5055945;28;20506;-49
2023/04/01 00:41:20;;;;;;;5.80;4.05;;;;;;;19.58;51.21;99980.28;5054985;28;20055;-49
2023/04/01 00:43:51;;;;;;;5.32;3.42;;;;;;;19.58;51.25;99975.75;5056317;28;20075;-52
2023/04/01 00:46:20;;;;;;;7.13;4.68;;;;;;;19.57;51.27;99971.38;5054938;28;20041;-49
2023/04/01 00:48:55;;;;;;;7.53;4.07;;;;;;;19.57;51.20;99970.50;5055983;28;20045;-52
2023/04/01 00:51:27;;;;;;;4.63;3.70;;;;;;;19.58;51.21;99973.06;5056543;28;20072;-50
2023/04/01 00:53:57;;;;;;;6.57;4.53;;;;;;;19.57;51.27;99979.44;5054472;28;20053;-51
2023/04/01 00:56:30;;;;;;;7.88;3.90;;;;;;;19.57;51.18;99973.19;5055000;28;20050;-53
2023/04/01 00:59:01;;;;;;;6.38;3.42;;;;;;;19.57;51.39;99971.38;5045599;28;20053;-50
2023/04/01 01:01:31;;;;;;;7.07;4.45;;;;;;;19.57;51.21;99968.69;5033893;28;20060;-51
2023/04/01 01:03:59;;;;;;;5.22;4.22;;;;;;;19.56;51.20;99964.28;5034849;28;20053;-48
2023/04/01 01:06:50;;;;;;;6.05;3.60;;;;;;;19.56;51.20;99969.66;5045509;28;20037;-50
2023/04/01 01:09:36;;;;;;;5.38;3.63;;;;;;;19.57;51.33;99981.25;5056048;28;20045;-48
2023/04/01 01:12:11;;;;;;;6.60;4.00;;;;;;;19.56;51.22;99976.88;5054675;28;20049;-51
2023/04/01 01:14:47;;;;;;;8.88;3.83;;;;;;;19.55;51.32;99981.41;5055631;28;20529;-48
2023/04/01 01:17:33;;;;;;;5.93;3.72;;;;;;;19.56;51.35;99983.09;5055490;28;20059;-51
2023/04/01 01:20:35;;;;;;;5.93;3.67;;;;;;;19.56;51.22;99982.25;5055608;28;20048;-50
2023/04/01 01:23:15;;;;;;;6.80;3.78;;;;;;;19.56;51.18;99990.31;5055157;28;20057;-48
2023/04/01 01:25:55;;;;;;;9.38;4.63;;;;;;;19.55;51.19;99981.41;5055227;28;20063;-49
2023/04/01 01:28:56;;;;;;;7.43;3.80;;;;;;;19.56;51.25;99982.25;5055442;28;20045;-52
2023/04/01 01:31:34;;;;;;;8.18;4.25;;;;;;;19.55;51.26;99985.94;5054914;28;20045;-49
2023/04/01 01:34:36;;;;;;;7.22;3.75;;;;;;;19.54;51.08;99978.91;5054292;28;20048;-48
2023/04/01 01:37:10;;;;;;;6.32;4.05;;;;;;;19.55;51.29;99970.66;5052186;28;20041;-52
2023/04/01 01:39:40;;;;;;;6.60;4.40;;;;;;;19.53;51.18;99972.69;5053769;28;20057;-48
2023/04/01 01:42:12;;;;;;;5.78;3.60;;;;;;;19.54;51.17;99977.03;5054232;28;20052;-49
2023/04/01 01:44:44;;;;;;;7.13;4.60;;;;;;;19.54;51.08;99977.03;5054393;28;20064;-50
2023/04/01 01:47:13;;;;;;;6.88;4.35;;;;;;;19.54;51.08;99963.63;5055111;28;20045;-51
2023/04/01 01:49:43;;;;;;;8.88;3.85;;;;;;;19.54;51.10;99963.63;5053849;28;20064;-48
2023/04/01 01:52:12;;;;;;;6.35;4.22;;;;;;;19.54;51.33;99962.78;5054813;28;20053;-48
2023/04/01 01:54:53;;;;;;;8.57;4.13;;;;;;;19.53;50.98;99956.56;5053350;28;20499;-48
2023/04/01 01:57:28;;;;;;;5.50;3.63;;;;;;;19.54;51.17;99952.88;5053778;28;20051;-48
2023/04/01 02:00:12;;;;;;;10.48;4.22;;;;;;;19.53;50.94;99956.56;5043872;28;20056;-49
2023/04/01 02:02:47;;;;;;;5.55;3.55;;;;;;;19.54;50.92;99963.63;5032778;28;20054;-53
2023/04/01 02:05:19;;;;;;;6.95;4.47;;;;;;;19.53;51.09;99964.63;5048133;28;20060;-50
2023/04/01 02:07:55;;;;;;;6.43;3.72;;;;;;;19.54;51.10;99971.69;5033919;28;20045;-48
2023/04/01 02:10:26;;;;;;;4.18;3.65;;;;;;;19.52;51.05;99969.13;5034639;28;20049;-49
2023/04/01 02:13:00;;;;;;;5.80;3.60;;;;;;;19.53;51.09;99961.94;5033679;28;20049;-49
2023/04/01 02:15:33;;;;;;;6.80;4.07;;;;;;;19.54;50.82;99970.84;5033628;28;20057;-49
2023/04/01 02:18:02;;;;;;;5.57;4.05;;;;;;;19.52;51.07;99955.69;5033440;28;20053;-51
2023/04/01 02:20:30;;;;;;;5.38;3.65;;;;;;;19.52;50.71;99957.56;5033400;28;20045;-50
2023/04/01 02:22:59;;;;;;;8.07;3.90;;;;;;;19.52;51.06;99955.69;5034716;28;20048;-49
2023/04/01 02:25:30;;;;;;;5.05;3.65;;;;;;;19.52;51.09;99961.06;5032921;28;20065;-50
2023/04/01 02:27:59;;;;;;;6.53;4.38;;;;;;;19.52;51.02;99961.06;5033387;28;20056;-49
2023/04/01 02:30:29;;;;;;;7.03;4.20;;;;;;;19.53;51.23;99964.63;5033056;28;20056;-50
2023/04/01 02:32:58;;;;;;;4.72;4.15;;;;;;;19.51;51.16;99955.88;5032770;28;20094;-49
2023/04/01 02:35:26;;;;;;;6.38;4.05;;;;;;;19.51;51.00;99953.19;5034602;28;20049;-48
2023/04/01 02:37:54;;;;;;;6.13;3.58;;;;;;;19.51;51.06;99950.50;5032737;28;20057;-48
2023/04/01 02:40:22;;;;;;;6.85;3.55;;;;;;;19.51;51.02;99961.25;5032687;28;20420;-50
2023/04/01 02:42:50;;;;;;;4.75;3.67;;;;;;;19.51;50.95;99961.25;5032553;28;20487;-49
2023/04/01 02:45:18;;;;;;;5.90;3.67;;;;;;;19.51;50.98;99961.25;5032828;28;20053;-48
2023/04/01 02:47:45;;;;;;;6.75;4.00;;;;;;;19.51;51.14;99963.94;5051926;28;20045;-49
2023/04/01 02:50:12;;;;;;;6.13;3.42;;;;;;;19.50;50.97;99957.72;5052476;28;20049;-49
2023/04/01 02:52:40;;;;;;;6.07;3.78;;;;;;;19.50;51.09;99957.72;5053777;28;20060;-48
2023/04/01 02:55:08;;;;;;;6.28;3.83;;;;;;;19.50;50.92;99959.56;5052031;28;20522;-46
2023/04/01 02:57:35;;;;;;;5.20;4.05;;;;;;;19.49;51.19;99964.09;5052807;28;20055;-51
2023/04/01 03:00:03;;;;;;;6.70;3.65;;;;;;;19.50;50.92;99972.97;5051767;28;20056;-48
2023/04/01 03:02:31;;;;;;;8.02;3.75;;;;;;;19.50;50.97;99970.31;5032006;28;20049;-51
2023/04/01 03:04:58;;;;;;;5.18;3.72;;;;;;;19.50;50.90;99970.31;5033576;28;20056;-49
2023/04/01 03:07:25;;;;;;;8.50;3.88;;;;;;;19.49;51.04;99961.41;5033663;28;20045;-52
2023/04/01 03:09:53;;;;;;;6.07;3.83;;;;;;;19.49;51.00;99960.56;5031982;28;20057;-49
2023/04/01 03:12:20;;;;;;;4.57;3.25;;;;;;;19.50;50.96;99972.97;5032244;28;20064;-50
2023/04/01 03:14:50;;;;;;;5.00;3.45;;;;;;;19.48;50.92;99950.81;5032184;28;20063;-50
2023/04/01 03:17:17;;;;;;;5.43;3.65;;;;;;;19.49;50.96;99974.00;5031671;28;20049;-51
2023/04/01 03:19:45;;;;;;;5.15;3.20;;;;;;;19.49;50.83;99968.63;5043123;28;20381;-48
2023/04/01 03:22:13;;;;;;;5.20;3.17;;;;;;;19.49;50.82;99965.94;5052594;28;20060;-51
2023/04/01 03:24:40;;;;;;;4.22;3.33;;;;;;;19.48;50.88;99973.13;5053063;28;20056;-48
2023/04/01 03:27:08;;;;;;;5.68;3.25;;;;;;;19.49;50.97;99982.03;5053107;28;20061;-51
2023/04/01 03:29:35;;;;;;;5.03;3.20;;;;;;;19.48;51.24;99973.13;5053161;28;20049;-48
2023/04/01 03:32:02;;;;;;;4.95;3.30;;;;;;;19.49;50.88;99974.00;5052381;28;20049;-48
2023/04/01 03:34:30;;;;;;;4.68;3.10;;;;;;;19.49;51.09;99977.50;5053163;28;20040;-48
2023/04/01 03:36:57;;;;;;;8.18;3.40;;;;;;;19.48;51.38;99973.13;5052032;28;20055;-51
2023/04/01 03:39:25;;;;;;;4.20;3.30;;;;;;;19.49;51.09;99979.34;5052069;28;20056;-49
2023/04/01 03:41:52;;;;;;;4.97;3.00;;;;;;;19.48;50.94;99974.97;5051803;28;20064;-48
2023/04/01 03:44:20;;;;;;;5.22;3.30;;;;;;;19.48;51.08;99981.16;5051471;28;20049;-49
2023/04/01 03:46:51;;;;;;;4.22;3.15;;;;;;;19.48;51.11;99985.69;5036739;28;20056;-53
2023/04/01 03:49:18;;;;;;;7.90;4.05;;;;;;;19.47;51.21;99984.84;5052883;28;20055;-50
2023/04/01 03:51:45;;;;;;;11.93;3.75;;;;;;;19.48;51.28;99991.06;5051999;28;20480;-49
2023/04/01 03:54:13;;;;;;;4.13;3.20;;;;;;;19.48;51.24;99991.06;5054766;28;20048;-48
2023/04/01 03:56:41;;;;;;;4.65;3.17;;;;;;;19.48;51.07;99988.38;5055644;28;20119;-49
2023/04/01 03:59:08;;;;;;;7.43;3.58;;;;;;;19.47;50.94;99995.59;5055539;28;20064;-49
2023/04/01 04:01:36;;;;;;;4.80;3.60;;;;;;;19.47;50.96;100002.81;5050592;28;20049;-52
2023/04/01 04:04:04;;;;;;;6.97;3.08;;;;;;;19.49;51.26;100004.34;5052131;28;20049;-50
2023/04/01 04:06:32;;;;;;;5.40;2.75;;;;;;;19.47;51.45;100003.66;5046608;28;20428;-48
2023/04/01 04:09:00;;;;;;;6.55;3.17;;;;;;;19.47;51.35;100002.81;5035450;28;20069;-48
2023/04/01 04:11:31;;;;;;;5.63;3.67;;;;;;;19.48;51.52;100015.22;5035762;28;20396;-50
2023/04/01 04:13:59;;;;;;;6.05;2.58;;;;;;;19.48;51.39;100015.22;5036071;28;20479;-49
2023/04/01 04:16:26;;;;;;;6.03;3.20;;;;;;;19.47;51.29;100006.34;5035529;28;20060;-49
2023/04/01 04:18:58;;;;;;;5.32;3.80;;;;;;;19.47;51.22;100006.34;5037007;28;20492;-49
2023/04/01 04:21:25;;;;;;;5.28;3.25;;;;;;;19.47;51.27;100006.34;5036396;28;20045;-51
2023/04/01 04:23:53;;;;;;;4.38;3.28;;;;;;;19.47;51.08;100008.19;5035216;28;20076;-51
2023/04/01 04:26:21;;;;;;;4.78;3.42;;;;;;;19.47;51.10;100009.03;5035621;28;20053;-51
2023/04/01 04:29:00;;;;;;;6.22;3.10;;;;;;;19.45;50.80;100008.34;5035361;28;20049;-49
2023/04/01 04:31:28;;;;;;;4.47;3.25;;;;;;;19.45;50.91;100008.34;5036316;28;20049;-50
2023/04/01 04:34:00;;;;;;;5.05;3.03;;;;;;;19.45;50.75;100016.41;5035715;28;20049;-49
2023/04/01 04:36:31;;;;;;;4.90;3.30;;;;;;;19.45;50.78;100015.56;5035511;28;20054;-49
2023/04/01 04:39:01;;;;;;;5.68;3.58;;;;;;;19.45;50.79;100007.50;5036450;28;20637;-52
2023/04/01 04:41:29;;;;;;;5.25;3.72;;;;;;;19.44;50.87;100006.63;5035615;28;20060;-49
2023/04/01 04:43:58;;;;;;;5.03;3.28;;;;;;;19.44;50.89;100011.16;5035134;28;20049;-49
2023/04/01 04:46:26;;;;;;;4.85;2.92;;;;;;;19.46;50.78;100022.59;5034820;28;20053;-49
2023/04/01 04:49:01;;;;;;;5.78;3.47;;;;;;;19.44;50.94;100014.69;5035021;28;20053;-48
2023/04/01 04:51:28;;;;;;;4.60;3.63;;;;;;;19.44;50.67;100022.75;5034997;28;20060;-49
2023/04/01 04:53:55;;;;;;;5.35;3.28;;;;;;;19.44;50.69;100025.41;5036067;28;20060;-49
2023/04/01 04:56:33;;;;;;;7.82;3.38;;;;;;;19.43;50.62;100029.09;5036425;28;20057;-49
2023/04/01 04:59:06;;;;;;;5.38;3.20;;;;;;;19.45;50.62;100037.03;5034925;28;20484;-48
2023/04/01 05:01:47;;;;;;;4.50;3.38;;;;;;;19.43;50.59;100036.31;5034801;28;20050;-47
2023/04/01 05:04:17;;;;;;;4.72;3.03;;;;;;;19.43;50.29;100042.53;5033018;28;20050;-50
2023/04/01 05:06:44;;;;;;;5.25;3.35;;;;;;;19.43;50.51;100047.06;5034375;28;20053;-50
2023/04/01 05:09:13;;;;;;;6.85;3.60;;;;;;;19.43;50.52;100055.09;5034631;28;20056;-49
2023/04/01 05:11:41;;;;;;;4.68;3.20;;;;;;;19.42;50.34;100056.13;5034817;28;20480;-49
2023/04/01 05:14:16;;;;;;;4.88;3.17;;;;;;;19.40;50.39;100048.19;5033962;28;20479;-49
2023/04/01 05:16:53;;;;;;;5.03;3.35;;;;;;;19.41;50.29;100049.06;5034325;28;20423;-49
2023/04/01 05:19:21;;;;;;;4.30;3.28;;;;;;;19.41;50.18;100051.75;5040551;28;20047;-51
2023/04/01 05:21:49;;;;;;;4.70;3.33;;;;;;;19.40;50.28;100050.03;5055636;28;20057;-51
2023/04/01 05:24:17;;;;;;;7.18;3.28;;;;;;;19.38;50.30;100052.88;5055235;28;20060;-51
2023/04/01 05:26:45;;;;;;;6.68;3.20;;;;;;;19.40;50.26;100063.47;5054066;28;20057;-49
2023/04/01 05:29:13;;;;;;;4.85;3.03;;;;;;;19.40;50.23;100074.19;5054445;28;20056;-49
2023/04/01 05:31:41;;;;;;;4.97;3.38;;;;;;;19.39;50.32;100069.81;5054112;28;20502;-49
2023/04/01 05:34:09;;;;;;;5.63;3.10;;;;;;;19.39;50.04;100065.31;5054188;28;20057;-50
2023/04/01 05:36:36;;;;;;;4.68;3.53;;;;;;;19.37;50.17;100064.63;5055463;28;20045;-48
2023/04/01 05:39:04;;;;;;;5.50;2.90;;;;;;;19.39;50.17;100067.16;5053417;28;20052;-49
2023/04/01 05:41:38;;;;;;;3.70;2.85;;;;;;;19.37;50.01;100072.69;5054586;28;20391;-52
2023/04/01 05:44:05;;;;;;;6.50;3.03;;;;;;;19.37;49.97;100070.00;5055628;28;20392;-51
2023/04/01 05:46:41;;;;;;;5.40;2.83;;;;;;;19.37;50.06;100078.03;5061670;28;20475;-48
2023/04/01 05:49:23;;;;;;;3.83;2.55;;;;;;;19.37;50.21;100079.88;5054998;28;20053;-52
2023/04/01 05:51:53;;;;;;;3.63;2.75;;;;;;;19.37;50.40;100083.41;5054773;28;20041;-49
2023/04/01 05:54:21;;;;;;;4.00;2.75;;;;;;;19.37;50.33;100087.94;5054253;28;20513;-48
2023/04/01 05:56:49;;;;;;;5.38;3.53;;;;;;;19.39;50.26;100088.63;5037512;28;20053;-49
2023/04/01 05:59:19;;;;;;;4.97;3.72;;;;;;;19.37;50.21;100082.56;5053127;28;20415;-50
2023/04/01 06:01:46;;;;;;;3.70;2.75;;;;;;;19.39;50.24;100083.25;5053306;28;20053;-49
2023/04/01 06:04:16;;;;;;;5.78;3.22;;;;;;;19.37;50.06;100079.88;5042040;28;20061;-50
2023/04/01 06:06:45;;;;;;;6.28;3.38;;;;;;;19.37;49.91;100077.19;5046968;28;20053;-49
2023/04/01 06:09:29;;;;;;;3.58;2.97;;;;;;;19.38;49.78;100081.56;5033098;28;20049;-49
2023/04/01 06:12:00;;;;;;;6.50;3.78;;;;;;;19.37;49.73;100075.34;5033924;28;20385;-50
2023/04/01 06:15:06;;;;;;;4.65;3.40;;;;;;;19.37;49.88;100078.03;5033624;28;20075;-49
2023/04/01 06:18:07;;;;;;;4.22;3.08;;;;;;;19.39;49.71;100080.56;5034577;28;20514;-49
2023/04/01 06:20:56;;;;;;;5.38;3.53;;;;;;;19.39;49.65;100083.25;5034406;28;20131;-52
2023/04/01 06:23:30;;;;;;;5.15;3.10;;;;;;;19.40;49.57;100088.47;5034178;28;20041;-52
2023/04/01 06:26:23;;;;;;;5.68;3.63;;;;;;;19.41;49.59;100089.34;5033321;28;20064;-48
2023/04/01 06:28:53;;;;;;;5.78;3.30;;;;;;;19.41;49.54;100092.84;5033725;28;20400;-50
2023/04/01 06:31:26;;;;;;;4.32;3.08;;;;;;;19.42;49.59;100094.53;5032471;28;20475;-51
2023/04/01 06:34:26;;;;;;;4.90;3.08;;;;;;;19.41;49.52;100095.53;5034199;28;20061;-50
2023/04/01 06:37:31;;;;;;;5.40;3.58;;;;;;;19.42;49.56;100099.06;5033512;28;20064;-49
2023/04/01 06:40:29;;;;;;;4.35;3.17;;;;;;;19.43;49.60;100103.44;5032664;28;20065;-48
2023/04/01 06:43:15;;;;;;;5.00;2.92;;;;;;;19.43;49.62;100098.06;5033077;28;20491;-48
2023/04/01 06:46:23;;;;;;;4.95;2.83;;;;;;;19.43;49.50;100101.59;5033846;28;20046;-51
2023/04/01 06:49:29;;;;;;;4.15;2.72;;;;;;;19.43;49.64;100098.91;5040585;28;20068;-51
2023/04/01 06:52:42;;;;;;;4.40;3.13;;;;;;;19.44;49.55;100095.22;5040707;28;20072;-51
2023/04/01 06:55:38;;;;;;;6.32;2.90;;;;;;;19.45;49.64;100101.44;5033460;28;20053;-51
2023/04/01 06:58:37;;;;;;;4.97;3.00;;;;;;;19.45;49.65;100096.94;5033096;28;20057;-48
2023/04/01 07:01:10;;;;;;;4.00;2.83;;;;;;;19.45;49.60;100091.56;5031840;28;20053;-48
2023/04/01 07:03:53;;;;;;;4.95;3.17;;;;;;;19.47;49.56;100096.75;5032401;28;20503;-48
2023/04/01 07:06:30;;;;;;;4.90;3.28;;;;;;;19.47;49.66;100102.13;5046490;28;20052;-48
2023/04/01 07:09:06;;;;;;;5.03;3.30;;;;;;;19.48;49.71;100093.06;5033145;28;20045;-48
2023/04/01 07:12:00;;;;;;;4.57;2.72;;;;;;;19.47;49.67;100094.91;5042270;28;20064;-46
2023/04/01 07:14:54;;;;;;;4.55;2.80;;;;;;;19.48;49.88;100101.13;5033369;28;20068;-48
2023/04/01 07:17:28;;;;;;;5.55;3.63;;;;;;;19.48;49.73;100090.38;5032809;28;20045;-51
2023/04/01 07:20:11;;;;;;;4.72;3.17;;;;;;;19.50;49.86;100093.78;5035713;28;20041;-50
2023/04/01 07:22:48;;;;;;;4.80;3.10;;;;;;;19.51;49.92;100103.53;5052177;28;20059;-48
2023/04/01 07:25:38;;;;;;;6.30;3.72;;;;;;;19.51;49.69;100100.84;5051755;28;20049;-48
2023/04/01 07:28:35;;;;;;;4.78;3.25;;;;;;;19.52;49.80;100097.16;5051662;28;20407;-49
2023/04/01 07:31:30;;;;;;;3.85;2.65;;;;;;;19.52;49.81;100099.84;5051834;28;20407;-50
2023/04/01 07:34:10;;;;;;;7.10;3.38;;;;;;;19.52;49.85;100098.00;5051860;28;20057;-52
2023/04/01 07:36:45;;;;;;;5.43;3.63;;;;;;;19.52;49.79;100095.31;5035289;28;20060;-50
2023/04/01 07:39:29;;;;;;;5.43;3.58;;;;;;;19.52;49.79;100102.53;5052077;28;20052;-52
2023/04/01 07:42:50;;;;;;;4.45;3.42;;;;;;;19.53;49.80;100101.53;5053064;28;20071;-48
2023/04/01 07:45:20;;;;;;;5.78;3.58;;;;;;;19.53;49.72;100096.19;5051873;28;20056;-48
2023/04/01 07:47:59;;;;;;;5.28;3.15;;;;;;;19.54;49.82;100099.69;5051905;28;20049;-50
2023/04/01 07:50:31;;;;;;;5.32;3.40;;;;;;;19.52;49.75;100089.94;5051325;28;20045;-48
2023/04/01 07:53:26;;;;;;;4.35;3.30;;;;;;;19.52;49.96;100089.94;5051961;28;20507;-49
2023/04/01 07:56:19;;;;;;;5.25;3.40;;;;;;;19.54;49.85;100088.97;5051400;28;20049;-50
2023/04/01 07:58:59;;;;;;;5.80;3.22;;;;;;;19.54;49.82;100092.50;5051866;28;20053;-48
2023/04/01 08:02:27;;;;;;;4.97;2.83;;;;;;;19.54;49.91;100092.50;5059545;28;20067;-51
2023/04/01 08:05:38;;;;;;;5.80;3.45;;;;;;;19.54;49.77;100089.81;5046453;28;20480;-49
2023/04/01 08:08:25;;;;;;;5.95;2.72;;;;;;;19.54;49.93;100087.13;5032157;28;20053;-48
2023/04/01 08:11:14;;;;;;;6.13;3.42;;;;;;;19.55;49.93;100096.84;5039846;28;20475;-48
2023/04/01 08:14:27;;;;;;;5.35;3.17;;;;;;;19.55;49.87;100099.53;5040103;28;20124;-50
2023/04/01 08:17:35;;;;;;;7.18;3.72;;;;;;;19.55;49.80;100087.97;5039633;28;20076;-48
2023/04/01 08:20:29;;;;;;;6.18;3.55;;;;;;;19.55;49.66;100086.13;5031603;28;20411;-49
2023/04/01 08:23:08;;;;;;;5.30;3.10;;;;;;;19.56;49.98;100095.00;5031307;28;20062;-50
2023/04/01 08:25:56;;;;;;;4.50;3.35;;;;;;;19.55;49.97;100094.16;5031704;28;20053;-49
2023/04/01 08:28:53;;;;;;;5.20;3.08;;;;;;;19.56;49.83;100089.63;5031475;28;20388;-50
2023/04/01 08:31:33;;;;;;;7.05;3.65;;;;;;;19.56;49.86;100098.53;5031436;28;20400;-50
2023/04/01 08:34:05;;;;;;;4.18;3.05;;;;;;;19.57;49.85;100094.00;5032025;28;20053;-50
2023/04/01 08:36:37;;;;;;;6.93;3.73;;;;;;;19.56;49.80;100095.84;5031164;28;20064;-49
2023/04/01 08:39:30;;;;;;;5.18;3.28;;;;;;;19.57;49.82;100094.88;5032246;28;20053;-51
2023/04/01 08:42:01;;;;;;;4.28;3.05;;;;;;;19.57;49.46;100085.94;5034999;28;20089;-49
2023/04/01 08:45:00;;;;;;;5.93;3.40;;;;;;;19.58;50.02;100077.75;5050862;28;20459;-49
2023/04/01 08:47:38;;;;;;;5.22;2.92;;;;;;;19.60;49.97;100082.97;5055010;28;20053;-50
2023/04/01 08:50:43;;;;;;;4.78;3.10;;;;;;;19.60;50.03;100089.19;5054953;28;20048;-48
2023/04/01 08:53:32;;;;;;;5.68;3.40;;;;;;;19.62;50.04;100089.91;5054468;28;20507;-51
2023/04/01 08:56:22;;;;;;;4.60;3.00;;;;;;;19.63;49.94;100094.28;5055901;28;20044;-49
2023/04/01 08:59:25;;;;;;;6.18;3.15;;;;;;;19.64;50.18;100095.97;5054672;28;20391;-49
2023/04/01 09:02:38;;;;;;;6.40;3.05;;;;;;;19.66;49.95;100095.84;5054239;28;20056;-49
2023/04/01 09:05:54;;;;;;;5.18;3.13;;;;;;;19.66;50.11;100085.94;5054498;28;20049;-47
2023/04/01 09:08:57;;;;;;;7.43;3.13;;;;;;;19.68;49.98;100085.78;5052707;28;20044;-49
2023/04/01 09:11:28;;;;;;;;;;;;;;;19.68;50.12;100086.63;5055274;28;20479;-48
2023/04/01 09:14:13;;;;;;;6.60;2.42;;;;;;;19.69;50.12;100084.81;5055526;28;19920;-47
2023/04/01 09:17:00;;;;;;;6.10;2.75;;;;;;;19.69;50.20;100093.69;5054240;28;20419;-48
2023/04/01 09:19:31;;;;;;;3.95;2.95;;;;;;;19.69;50.19;100093.69;5054234;28;20064;-48
2023/04/01 09:22:36;;;;;;;3.47;2.70;;;;;;;19.70;50.08;100098.06;5053781;28;20060;-47
2023/04/01 09:25:21;;;;;;;5.80;2.78;;;;;;;19.71;50.12;100096.22;5054253;28;20041;-48
2023/04/01 09:28:12;;;;;;;5.53;3.15;;;;;;;19.69;49.93;100085.63;5055181;28;20041;-46
2023/04/01 09:30:40;;;;;;;4.80;2.80;;;;;;;19.69;50.22;100088.31;5054229;28;20072;-48
2023/04/01 09:33:41;;;;;;;3.80;2.72;;;;;;;19.72;50.00;100090.69;5054041;28;20048;-47
2023/04/01 09:36:48;;;;;;;4.60;3.22;;;;;;;19.70;50.15;100099.91;5033755;28;20053;-48
2023/04/01 09:39:37;;;;;;;3.58;2.65;;;;;;;19.70;49.90;100092.69;5021194;28;20053;-47
2023/04/01 09:42:13;;;;;;;5.63;2.92;;;;;;;19.71;49.96;100088.16;5033636;28;20060;-46
2023/04/01 09:45:00;;;;;;;4.70;2.80;;;;;;;19.70;49.85;100087.31;5033620;28;20053;-47
2023/04/01 09:47:59;;;;;;;4.55;2.80;;;;;;;19.70;49.87;100084.63;5034151;28;20518;-46
2023/04/01 09:50:31;;;;;;;4.85;2.72;;;;;;;19.70;49.87;100081.94;5033381;28;20049;-47
2023/04/01 09:53:05;;;;;;;4.50;2.72;;;;;;;19.72;50.05;100084.47;5034864;28;20411;-47
2023/04/01 09:55:38;;;;;;;5.35;3.03;;;;;;;19.72;49.92;100077.25;5034123;28;20057;-51
2023/04/01 09:58:30;;;;;;;4.55;2.70;;;;;;;19.73;49.87;100070.06;5035047;28;20492;-49
2023/04/01 10:01:15;;;;;;;6.75;3.15;;;;;;;19.72;49.85;100066.50;5041604;28;20060;-48
2023/04/01 10:04:09;;;;;;;4.38;2.85;;;;;;;19.72;49.90;100061.16;5033403;28;20057;-47
2023/04/01 10:07:22;;;;;;;4.32;2.28;;;;;;;19.73;50.06;100062.00;5039259;28;20057;-49
2023/04/01 10:10:12;;;;;;;6.63;2.63;;;;;;;19.73;49.88;100059.34;5032352;28;20483;-47
2023/04/01 10:12:55;;;;;;;4.10;2.20;;;;;;;19.73;49.96;100057.47;5033171;28;20049;-48
2023/04/01 10:15:23;;;;;;;4.30;2.70;;;;;;;19.73;49.88;100054.81;5033465;28;20090;-50
2023/04/01 10:18:09;;;;;;;4.45;2.33;;;;;;;19.75;50.08;100054.63;5033106;28;20056;-48
2023/04/01 10:21:01;;;;;;;3.92;2.60;;;;;;;19.76;49.94;100056.31;5033776;28;20050;-48
2023/04/01 10:24:01;;;;;;;6.00;2.92;;;;;;;19.76;49.92;100048.25;5033748;28;20055;-51
2023/04/01 10:26:36;;;;;;;5.20;2.63;;;;;;;19.76;49.93;100043.72;5033256;28;20057;-49
2023/04/01 10:30:18;;;;;;;3.95;2.80;;;;;;;19.79;50.11;100037.22;5052159;28;20049;-49
2023/04/01 10:32:59;;;;;;;6.20;2.33;;;;;;;19.81;49.93;100042.41;5034925;28;20155;-46
2023/04/01 10:35:40;;;;;;;9.48;2.25;;;;;;;19.81;50.07;100040.59;5032452;28;20526;-50
2023/04/01 10:38:41;;;;;;;7.75;3.03;;;;;;;19.83;49.90;100041.28;5033175;28;20369;-49
2023/04/01 10:41:23;;;;;;;5.07;2.53;;;;;;;19.84;49.74;100039.44;5033958;28;20037;-50
2023/04/01 10:44:34;;;;;;;8.63;2.47;;;;;;;19.82;49.11;100036.91;5040734;28;20060;-50
2023/04/01 10:47:26;;;;;;;5.72;2.25;;;;;;;19.82;49.40;100038.75;5032395;28;20054;-48
2023/04/01 10:50:15;;;;;;;6.90;3.15;;;;;;;19.80;48.71;100028.16;5032591;28;20053;-50
2023/04/01 10:52:46;;;;;;;6.63;2.40;;;;;;;19.80;48.78;100025.47;5033184;28;20076;-49
2023/04/01 10:55:48;;;;;;;12.45;3.55;;;;;;;19.78;48.84;100024.78;5044251;28;20058;-50
2023/04/01 10:58:52;;;;;;;6.45;2.22;;;;;;;19.79;49.06;100023.78;5040489;28;20061;-48
2023/04/01 11:02:04;;;;;;;8.80;2.53;;;;;;;19.78;48.54;100029.31;5040095;28;20048;-51
2023/04/01 11:05:05;;;;;;;9.07;3.40;;;;;;;19.77;48.11;100028.47;5040885;28;20068;-51
2023/04/01 11:08:32;;;;;;;6.82;3.10;;;;;;;19.74;43.71;100018.88;5032500;28;20523;-59
2023/04/01 11:11:32;;;;;;;5.72;3.20;;;;;;;19.69;40.84;100018.50;5035309;28;20049;-58
2023/04/01 11:14:25;;;;;;;6.05;2.95;;;;;;;19.66;42.64;100016.13;5052606;28;20518;-60
2023/04/01 11:17:14;;;;;;;4.75;2.88;;;;;;;19.63;42.64;100013.75;5052590;28;20044;-60
2023/04/01 11:20:19;;;;;;;3.55;2.22;;;;;;;19.63;43.31;100008.38;5053587;28;20376;-59
2023/04/01 11:22:54;;;;;;;3.97;2.40;;;;;;;19.64;44.04;100003.84;5051610;28;20049;-59
2023/04/01 11:25:36;;;;;;;6.88;2.17;;;;;;;19.66;44.92;100009.91;5051617;28;20053;-50
2023/04/01 11:28:44;;;;;;;7.45;2.38;;;;;;;19.67;45.36;100004.38;5060367;28;20071;-49
2023/04/01 11:31:42;;;;;;;4.68;1.90;;;;;;;19.68;46.11;99992.63;5052091;28;20488;-48
2023/04/01 11:34:15;;;;;;;5.97;2.20;;;;;;;19.71;46.03;99999.53;5051881;28;20048;-49
2023/04/01 11:36:46;;;;;;;7.90;1.95;;;;;;;19.72;46.65;99993.16;5052846;28;20053;-48
2023/04/01 11:39:42;;;;;;;3.08;1.75;;;;;;;19.73;46.95;99993.03;5051451;28;20388;-49
2023/04/01 11:43:29;;;;;;;4.47;1.80;;;;;;;19.75;47.05;99993.72;5052741;28;20273;-47
2023/04/01 11:46:29;;;;;;;3.28;1.77;;;;;;;19.76;46.41;99984.66;5046544;28;20053;-50
2023/04/01 11:49:07;;;;;;;6.13;2.00;;;;;;;19.76;47.40;99979.28;5034592;28;20057;-52
2023/04/01 11:52:00;;;;;;;5.95;1.95;;;;;;;19.77;46.61;99980.16;5039837;28;20056;-52
2023/04/01 11:54:43;;;;;;;4.57;2.15;;;;;;;19.75;46.42;99985.66;5052997;28;20045;-51
2023/04/01 11:57:31;;;;;;;4.70;1.70;;;;;;;19.76;47.58;99981.97;5052953;28;20116;-48
2023/04/01 12:00:16;;;;;;;3.70;2.10;;;;;;;19.76;47.14;99991.84;5052949;28;20048;-49
2023/04/01 12:03:13;;;;;;;7.75;2.42;;;;;;;19.76;47.71;99987.31;5052803;28;20052;-49
2023/04/01 12:05:54;;;;;;;6.90;1.90;;;;;;;19.78;47.60;99975.63;5036211;28;20399;-48
2023/04/01 12:08:36;;;;;;;4.65;1.75;;;;;;;19.79;47.82;99972.75;5053095;28;20052;-47
2023/04/01 12:11:10;;;;;;;5.60;1.95;;;;;;;19.80;48.02;99976.28;5034147;28;20033;-50
2023/04/01 12:14:09;;;;;;;5.10;2.50;;;;;;;19.81;48.12;99977.97;5032633;28;20072;-53
2023/04/01 12:16:45;;;;;;;5.22;2.05;;;;;;;19.82;48.30;99969.75;5036741;28;20042;-53
2023/04/01 12:19:19;;;;;;;5.10;2.38;;;;;;;19.84;48.49;99977.66;5036934;28;20060;-51
2023/04/01 12:22:09;;;;;;;4.95;1.80;;;;;;;19.83;48.58;99966.06;5037042;28;20041;-50
2023/04/01 12:24:49;;;;;;;3.55;2.13;;;;;;;19.83;48.93;99966.06;5035383;28;20058;-47
2023/04/01 12:27:35;;;;;;;4.90;2.10;;;;;;;19.86;49.04;99973.00;5035451;28;20491;-48
2023/04/01 12:30:53;;;;;;;7.05;2.58;;;;;;;19.86;48.99;99965.78;5045982;28;20464;-50